Thunder radar more information blitzortung!


Radar de pluja more information rain snow radar


Visita la nostra xarxa de llocs de meteo:

Template documentation
and downloads

And another site



No particular awareness of the weather is required.    There are no Weather-warnings

Pagina Historial Weather Underground text

Diari Resum Octubre 19, 2017 Unitats:  Imperial    Mètric   Tant
« Previous Dia
SegĂźent Dia »
Diari Setmana Mensual Anual Personalitzada
  Maxima: Minima: Media:
Temperatura: 60.8 °F 56.3 °F 58.8 °F
Punt de rosada: 59.5 °F 54.9 °F 57.6 °F
Humitat: 97 % 92 % 96 %
Wind Speed: 13.8 mph 0 mph 3.4 mph
RĂ fegues de vent: 13.8 mph - -
Vent:- - ENE
Pression baro: 29.9 in 29.7 in -
Precipitacions: 2.06 in    
Historical Graphs
 
 
Dades de taula per Octubre 19, 2017
Temps Temperatura Punt de rosada Pression baro Vent Wind Speed RĂ fegues de vent Humitat Rainfall Rate (Hourly)
00:00 58.8 °F 57.4 °F 29.8 in Calm   2 mph 95 % 0 in
00:04 58.3 °F 55.9 °F 29.9 in ENE 2.3 mph 2.3 mph 92 % 0 in
00:09 58.3 °F 55.9 °F 29.9 in NNE 3.5 mph 3.5 mph 92 % 0 in
00:10 58.8 °F 57.4 °F 29.8 in East 1 mph 1 mph 95 % 0.04 in
00:14 58.3 °F 55.9 °F 29.9 in NNE 4.6 mph 4.6 mph 92 % 0 in
00:20 58.8 °F 57.4 °F 29.8 in Calm     95 % 0.04 in
00:30 59 °F 57.6 °F 29.8 in NE 5 mph 5 mph 95 % 0 in
00:40 59 °F 57.6 °F 29.8 in NE 1 mph 5 mph 95 % 0 in
00:50 58.8 °F 57.4 °F 29.8 in NE 2 mph 4 mph 95 % 0 in
01:00 58.6 °F 57.2 °F 29.8 in NNE 1 mph 2 mph 95 % 0 in
01:10 58.5 °F 57 °F 29.8 in Calm     95 % 0 in
01:20 58.5 °F 57 °F 29.8 in Calm   3 mph 95 % 0 in
01:30 58.5 °F 57 °F 29.8 in NE 3 mph 3 mph 95 % 0 in
01:40 58.1 °F 56.7 °F 29.8 in ENE 1 mph 3 mph 95 % 0.05 in
01:50 57.6 °F 55.8 °F 29.8 in NE 2 mph 3 mph 94 % 0.05 in
02:00 57.4 °F 55.8 °F 29.8 in NE 3 mph 3 mph 94 % 0.16 in
02:10 57 °F 55.2 °F 29.8 in Calm   2 mph 94 % 0.2 in
02:20 56.7 °F 55 °F 29.8 in Calm     94 % 0.08 in
02:30 56.7 °F 55 °F 29.8 in NE 2 mph 3 mph 94 % 0.13 in
02:40 56.5 °F 55 °F 29.8 in NE 2 mph 3 mph 95 % 0.13 in
02:50 56.3 °F 54.9 °F 29.8 in ENE 1 mph 3 mph 95 % 0.12 in
03:00 56.3 °F 54.9 °F 29.8 in Calm     95 % 0.08 in
03:10 56.3 °F 54.9 °F 29.8 in ENE 3 mph 3 mph 95 % 0 in
03:20 56.3 °F 54.9 °F 29.8 in NE 3 mph 4 mph 95 % 0 in
03:30 56.3 °F 54.9 °F 29.8 in NNE 1 mph 3 mph 95 % 0 in
03:40 56.5 °F 55 °F 29.8 in Calm   1 mph 95 % 0.04 in
03:50 56.5 °F 55 °F 29.8 in Calm   2 mph 95 % 0.04 in
04:00 56.5 °F 55.4 °F 29.8 in Calm   3 mph 96 % 0.04 in
04:10 56.8 °F 55.8 °F 29.8 in SE 3 mph 4 mph 96 % 0.17 in
04:20 56.8 °F 55.8 °F 29.8 in Calm   2 mph 96 % 0.21 in
04:30 56.8 °F 55.8 °F 29.8 in ENE 1 mph   96 % 0.08 in
04:40 56.8 °F 55.8 °F 29.8 in Calm     96 % 0.09 in
04:50 56.8 °F 55.8 °F 29.9 in Calm   1 mph 96 % 0.09 in
05:00 57 °F 55.9 °F 29.9 in SW 2 mph 2 mph 96 % 0.08 in
05:10 57 °F 55.9 °F 29.9 in Calm   2 mph 96 % 0.08 in
10:12 57.2 °F 56.1 °F 29.9 in Calm     96 % 0.46 in
10:13 57.2 °F 56.1 °F 29.9 in East 3.5 mph   96 % 0.46 in
10:18 57 °F 55.9 °F 29.9 in East 4.6 mph 4.6 mph 96 % 0.46 in
10:23 57 °F 55.9 °F 29.9 in East 4.6 mph   96 % 0.46 in
10:28 57.2 °F 56.1 °F 29.9 in East 1.2 mph 1.2 mph 96 % 0.42 in
10:33 57.2 °F 56.1 °F 29.9 in ESE 2.3 mph 2.3 mph 96 % 0.38 in
10:38 57 °F 55.9 °F 29.9 in East 2 mph 2 mph 96 % 0.36 in
10:43 57.2 °F 56.1 °F 29.9 in NNE 3.1 mph 3.1 mph 96 % 0.27 in
10:48 57.2 °F 56.1 °F 29.9 in NNE 3.5 mph 3.5 mph 96 % 0.23 in
10:53 57.4 °F 56.1 °F 29.9 in NNE 3.5 mph 3.5 mph 96 % 0.19 in
10:58 57.2 °F 56.1 °F 29.9 in NNE 4.7 mph 4.7 mph 96 % 0.13 in
11:03 57.4 °F 56.1 °F 29.9 in NNE 3.6 mph 3.6 mph 96 % 0.05 in
11:08 57.4 °F 56.1 °F 29.9 in NNE 2.6 mph 2.6 mph 96 % 0.05 in
11:13 57.4 °F 56.1 °F 29.9 in NNE 3.5 mph 3.5 mph 96 % 0.05 in
11:18 57.4 °F 56.1 °F 29.9 in NE 4.3 mph 4.3 mph 96 % 0.09 in
11:20 57.6 °F 56.5 °F 29.9 in ENE 4.6 mph 4.6 mph 96 % 0.09 in
11:25 57.6 °F 56.5 °F 29.9 in NE 2.4 mph 2.4 mph 96 % 0.09 in
11:30 57.6 °F 56.5 °F 29.9 in Calm     96 % 0.09 in
11:35 57.7 °F 56.7 °F 29.9 in NNE 2.6 mph 2.6 mph 96 % 0.09 in
11:40 57.7 °F 56.7 °F 29.9 in ENE 3.6 mph 3.6 mph 96 % 0.12 in
11:45 58.1 °F 57 °F 29.9 in NE 2.4 mph 2.4 mph 96 % 0.12 in
11:50 58.3 °F 57 °F 29.9 in NE 2.6 mph 2.9 mph 96 % 0.08 in
11:55 58.3 °F 57 °F 29.9 in NNE 3.5 mph 3.5 mph 96 % 0.08 in
12:00 58.5 °F 57.4 °F 29.9 in NNE 3.5 mph 3.5 mph 96 % 0.08 in
12:05 58.5 °F 57.4 °F 29.9 in NNE 4.3 mph 4.3 mph 96 % 0.08 in
12:10 58.3 °F 57 °F 29.9 in North 5.8 mph 5.8 mph 96 % 0.08 in
12:15 58.3 °F 57 °F 29.8 in NE 8.1 mph 8.1 mph 96 % 0.08 in
12:20 57.9 °F 56.8 °F 29.8 in ENE 5.8 mph 5.8 mph 96 % 0.04 in
12:25 57.7 °F 56.7 °F 29.8 in NNE 2.3 mph 2.9 mph 96 % 0.04 in
12:30 57.6 °F 56.1 °F 29.8 in ENE 3.5 mph 3.5 mph 95 % 0.04 in
12:35 57.6 °F 56.1 °F 29.8 in North 5.8 mph 5.8 mph 95 % 0.04 in
12:40 57.4 °F 55.9 °F 29.8 in NE 5.8 mph 5.8 mph 95 % 0 in
12:45 57.4 °F 55.9 °F 29.8 in NNE 5.8 mph 5.8 mph 95 % 0 in
12:50 57.6 °F 56.1 °F 29.8 in NNE 3.5 mph 3.5 mph 95 % 0 in
12:55 57.6 °F 56.1 °F 29.8 in NNE 3.6 mph 3.6 mph 95 % 0 in
13:00 57.6 °F 56.1 °F 29.8 in NNE 3.5 mph 3.5 mph 95 % 0 in
13:05 57.6 °F 56.1 °F 29.8 in NNE 5.8 mph 5.8 mph 95 % 0 in
13:10 57.4 °F 55.9 °F 29.8 in NNE 6.9 mph 6.9 mph 95 % 0 in
13:15 57.6 °F 56.1 °F 29.8 in NNE 3.5 mph 3.5 mph 95 % 0.04 in
13:20 57.6 °F 56.1 °F 29.8 in NNE 5.8 mph 5.8 mph 95 % 0.04 in
13:25 57.7 °F 56.3 °F 29.8 in NE 4.6 mph 4.6 mph 95 % 0.04 in
13:30 57.6 °F 56.1 °F 29.8 in NE 2.4 mph 2.6 mph 95 % 0.04 in
13:35 57.6 °F 56.1 °F 29.8 in NE 3.8 mph 3.8 mph 95 % 0.04 in
13:40 57.4 °F 55.9 °F 29.8 in ENE 4.6 mph 4.6 mph 95 % 0.04 in
13:45 57.4 °F 55.9 °F 29.8 in ENE 3.5 mph 3.5 mph 95 % 0.04 in
13:50 57.4 °F 55.9 °F 29.8 in NE 2.3 mph 2.3 mph 95 % 0.04 in
13:55 57.4 °F 55.9 °F 29.8 in NE 7.6 mph 7.6 mph 95 % 0.04 in
14:00 57.6 °F 56.1 °F 29.8 in North 3.8 mph 3.8 mph 95 % 0.04 in
14:05 57.6 °F 56.1 °F 29.8 in NE 2.4 mph   95 % 0.04 in
14:10 57.7 °F 56.7 °F 29.8 in NE 2.3 mph 2.3 mph 96 % 0.04 in
14:15 57.9 °F 56.8 °F 29.8 in North 2.3 mph   96 % 0 in
14:20 57.9 °F 56.8 °F 29.8 in NNW 2.3 mph 2.3 mph 96 % 0 in
14:25 58.1 °F 57 °F 29.8 in ENE 2.3 mph 2.3 mph 96 % 0.04 in
14:30 58.3 °F 57 °F 29.8 in ENE 1.2 mph   96 % 0.04 in
14:35 58.3 °F 57 °F 29.8 in WNW 2.3 mph 2.3 mph 96 % 0.04 in
14:40 58.5 °F 57.4 °F 29.8 in East 3.5 mph 3.5 mph 96 % 0.04 in
14:45 58.6 °F 57.6 °F 29.8 in Calm     96 % 0.04 in
14:50 58.8 °F 57.7 °F 29.8 in NNW 1.6 mph   96 % 0.04 in
14:55 59 °F 57.9 °F 29.8 in Calm     96 % 0.04 in
15:00 59.2 °F 57.9 °F 29.8 in Calm     96 % 0.04 in
15:05 59.7 °F 58.8 °F 29.8 in Calm     97 % 0.04 in
15:10 60.1 °F 59.2 °F 29.8 in Calm     97 % 0.04 in
15:15 60.3 °F 59.4 °F 29.8 in NNE 2.6 mph   97 % 0.04 in
15:20 60.3 °F 59.4 °F 29.8 in NNE 2.3 mph 2.3 mph 97 % 0.09 in
15:25 60.1 °F 58.8 °F 29.8 in NE 4.6 mph 4.6 mph 96 % 0.05 in
15:30 59.7 °F 58.6 °F 29.8 in NW 2.3 mph   96 % 0.05 in
15:35 59.7 °F 58.6 °F 29.8 in Calm     96 % 0.05 in
15:40 59.5 °F 58.5 °F 29.8 in Calm     96 % 0.05 in
15:45 59.9 °F 58.8 °F 29.7 in Calm     96 % 0.05 in
15:50 60.3 °F 59.2 °F 29.7 in Calm     96 % 0.05 in
15:51 60.3 °F 59.2 °F 29.7 in Calm     96 % 0.05 in
15:56 60.4 °F 59.4 °F 29.8 in Calm     96 % 0.09 in
16:01 60.6 °F 59.5 °F 29.8 in WNW 1.2 mph 1.2 mph 96 % 0.09 in
16:06 60.6 °F 59.5 °F 29.8 in SW 1.4 mph 1.4 mph 96 % 0.09 in
16:11 60.6 °F 59.5 °F 29.8 in ESE 1.6 mph   96 % 0.13 in
16:16 60.3 °F 59.2 °F 29.8 in ESE 1.2 mph 1.2 mph 96 % 0.13 in
16:21 60.4 °F 59.4 °F 29.8 in SW 2.3 mph 2.3 mph 96 % 0.08 in
16:26 60.3 °F 59.2 °F 29.8 in Calm     96 % 0.08 in
16:31 60.1 °F 58.8 °F 29.8 in ESE 2.3 mph 2.3 mph 96 % 0.12 in
16:36 60.1 °F 58.8 °F 29.8 in Calm     96 % 0.12 in
16:41 60.1 °F 58.8 °F 29.8 in Calm     96 % 0.12 in
16:46 59.9 °F 58.8 °F 29.8 in NNE 1.4 mph   96 % 0.12 in
16:51 59.7 °F 58.6 °F 29.8 in Calm     96 % 0.16 in
16:56 59.5 °F 58.5 °F 29.8 in West 3.5 mph 3.5 mph 96 % 0.17 in
17:01 59.5 °F 58.5 °F 29.8 in NW 1.4 mph   96 % 0.2 in
17:06 59.5 °F 58.5 °F 29.8 in NNE 2.3 mph 2.3 mph 96 % 0.2 in
17:11 59.5 °F 58.5 °F 29.7 in NNW 3.5 mph 3.5 mph 96 % 0.16 in
17:16 59.5 °F 58.5 °F 29.7 in West 1.2 mph   96 % 0.16 in
17:21 59.4 °F 58.3 °F 29.7 in WNW 2.3 mph 2.3 mph 96 % 0.21 in
17:26 59.5 °F 58.5 °F 29.7 in NE 2.3 mph 2.3 mph 96 % 0.25 in
17:31 59.5 °F 58.5 °F 29.7 in ESE 1.6 mph 1.6 mph 96 % 0.21 in
17:36 59.5 °F 58.5 °F 29.7 in NNW 2.3 mph 2.3 mph 96 % 0.25 in
17:41 59.5 °F 58.5 °F 29.7 in Calm     96 % 0.29 in
17:46 59.5 °F 58.5 °F 29.7 in ENE 4.6 mph 4.6 mph 96 % 0.29 in
17:51 59.5 °F 58.5 °F 29.7 in ENE 5.8 mph 5.8 mph 96 % 0.33 in
17:56 59.5 °F 58.5 °F 29.7 in NNE 5.8 mph 5.8 mph 96 % 0.33 in
18:01 59.5 °F 58.5 °F 29.7 in NNE 5.8 mph 5.8 mph 96 % 0.3 in
18:06 59.5 °F 58.5 °F 29.7 in NNE 4.7 mph 4.7 mph 96 % 0.34 in
18:11 59.4 °F 58.3 °F 29.7 in NE 8.1 mph 8.1 mph 96 % 0.34 in
18:16 59.4 °F 58.3 °F 29.7 in NNE 3.5 mph 3.5 mph 96 % 0.34 in
18:21 59.2 °F 57.9 °F 29.7 in NNE 10.4 mph 10.4 mph 96 % 0.29 in
18:26 59.2 °F 57.9 °F 29.7 in ENE 6 mph 6 mph 96 % 0.25 in
18:31 59 °F 57.9 °F 29.7 in NNW 4.9 mph 4.9 mph 96 % 0.25 in
18:36 59 °F 57.9 °F 29.7 in NNE 6.9 mph 6.9 mph 96 % 0.21 in
18:41 59 °F 57.9 °F 29.7 in North 7.8 mph 7.8 mph 96 % 0.21 in
18:46 59 °F 57.9 °F 29.7 in NNE 6 mph 6 mph 96 % 0.21 in
18:51 59 °F 57.9 °F 29.7 in NE 5.8 mph 5.8 mph 96 % 0.13 in
18:56 59 °F 57.9 °F 29.7 in East 5.8 mph 5.8 mph 96 % 0.08 in
19:01 59 °F 57.9 °F 29.7 in NNE 6.9 mph 6.9 mph 96 % 0.08 in
19:06 59 °F 57.9 °F 29.7 in NNE 6.9 mph 6.9 mph 96 % 0.04 in
19:11 59 °F 57.9 °F 29.7 in NE 5.8 mph 5.8 mph 96 % 0.04 in
19:16 59.2 °F 57.9 °F 29.7 in NE 9.2 mph 9.2 mph 96 % 0.04 in
19:20 59.7 °F 58.3 °F 29.9 in Calm     95 % 0 in
19:21 59.2 °F 57.9 °F 29.7 in NNE 13.8 mph 13.8 mph 96 % 0.04 in
19:26 59.2 °F 57.9 °F 29.7 in NNE 10.4 mph 10.4 mph 96 % 0.04 in
19:30 59.7 °F 58.6 °F 29.9 in Calm     96 % 0 in
19:31 59.2 °F 57.9 °F 29.7 in NNE 9.2 mph 9.2 mph 96 % 0.04 in
19:36 59.4 °F 58.3 °F 29.7 in NNW 6.9 mph 6.9 mph 96 % 0.04 in
19:40 59.7 °F 58.6 °F 29.9 in Calm     96 % 0 in
19:41 59.4 °F 58.3 °F 29.8 in NNE 10.7 mph 10.7 mph 96 % 0 in
19:46 59.5 °F 58.5 °F 29.8 in East 10.4 mph 10.4 mph 96 % 0 in
19:50 59.7 °F 58.3 °F 29.9 in Calm     95 % 0 in
19:51 59.5 °F 58.5 °F 29.8 in NNW 6.9 mph 6.9 mph 96 % 0 in
19:56 59.5 °F 58.5 °F 29.7 in ENE 6.9 mph 6.9 mph 96 % 0 in
20:00 59.7 °F 58.3 °F 29.9 in Calm     95 % 0 in
20:01 59.5 °F 58.5 °F 29.7 in NE 10.4 mph 10.4 mph 96 % 0 in
20:06 59.9 °F 58.8 °F 29.7 in NNE 12.7 mph 12.7 mph 96 % 0 in
20:10 59.5 °F 58.1 °F 29.9 in Calm     95 % 0 in
20:11 60.3 °F 58.8 °F 29.8 in NNE 8.1 mph 8.1 mph 95 % 0 in
20:16 60.3 °F 58.8 °F 29.8 in East 8.1 mph 8.1 mph 95 % 0 in
20:20 59.7 °F 58.3 °F 29.9 in Calm     95 % 0 in
20:21 60.4 °F 59 °F 29.8 in NNW 7.1 mph 7.1 mph 95 % 0.04 in
20:26 60.4 °F 59 °F 29.8 in NNE 11.5 mph 11.5 mph 95 % 0.04 in
20:30 59.5 °F 58.1 °F 29.9 in Calm     95 % 0 in
20:31 60.4 °F 59 °F 29.8 in NNE 5.8 mph 5.8 mph 95 % 0.04 in
20:36 60.3 °F 58.8 °F 29.8 in ENE 8.7 mph 8.7 mph 95 % 0.04 in
20:40 59.4 °F 57.9 °F 29.9 in Calm     95 % 0 in
20:41 60.4 °F 59 °F 29.8 in ENE 6.9 mph 6.9 mph 95 % 0.04 in
20:46 60.4 °F 59 °F 29.8 in ENE 9.2 mph 9.2 mph 95 % 0.04 in
20:50 59.4 °F 57.9 °F 29.9 in Calm     95 % 0 in
20:51 60.4 °F 59 °F 29.8 in ENE 5.9 mph 5.9 mph 95 % 0.04 in
20:56 60.4 °F 59 °F 29.8 in ENE 9.2 mph 9.2 mph 95 % 0.04 in
21:00 59.2 °F 57.7 °F 29.9 in Calm     95 % 0 in
21:01 60.4 °F 59 °F 29.8 in NE 7.8 mph 7.8 mph 95 % 0.04 in
21:06 60.6 °F 59.2 °F 29.8 in North 6.4 mph 6.4 mph 95 % 0.04 in
21:10 59.2 °F 57.9 °F 29.9 in Calm     96 % 0 in
21:11 60.6 °F 59.2 °F 29.8 in NNE 8.1 mph 8.1 mph 95 % 0.04 in
21:16 60.6 °F 59.2 °F 29.8 in NE 6.9 mph 6.9 mph 95 % 0.04 in
21:20 59.2 °F 57.9 °F 29.9 in Calm     96 % 0 in
21:21 60.6 °F 59.2 °F 29.8 in NNE 6 mph 6 mph 95 % 0 in
21:26 60.6 °F 59.2 °F 29.8 in NNE 8.1 mph 8.1 mph 95 % 0 in
21:30 59.2 °F 57.9 °F 29.9 in Calm     96 % 0 in
21:31 60.8 °F 59.4 °F 29.8 in NNE 6.9 mph 6.9 mph 95 % 0 in
21:36 60.8 °F 59.4 °F 29.8 in NE 8.5 mph 8.5 mph 95 % 0 in
21:40 59 °F 57.9 °F 29.9 in Calm     96 % 0 in
21:41 60.8 °F 59.4 °F 29.8 in NNE 5.8 mph 5.8 mph 95 % 0 in
21:46 60.8 °F 59.4 °F 29.8 in NNE 5.8 mph 5.8 mph 95 % 0 in
21:50 59 °F 57.9 °F 29.9 in Calm     96 % 0 in
21:51 60.8 °F 59.4 °F 29.8 in ENE 5.9 mph 5.9 mph 95 % 0 in
21:56 60.6 °F 59.2 °F 29.8 in NNE 5.8 mph 5.8 mph 95 % 0 in
22:00 58.8 °F 57.4 °F 29.9 in Calm     95 % 0 in
22:01 60.6 °F 59.2 °F 29.8 in NNE 7.4 mph 7.4 mph 95 % 0 in
22:06 60.4 °F 59 °F 29.8 in NE 4.6 mph 4.6 mph 95 % 0 in
22:10 58.6 °F 57.6 °F 29.9 in Calm     96 % 0 in
22:11 60.4 °F 59 °F 29.8 in NNE 4.6 mph 4.6 mph 95 % 0 in
22:12 60.4 °F 59 °F 29.8 in NE 2.6 mph 2.6 mph 95 % 0 in
22:17 60.4 °F 59 °F 29.8 in ENE 5.8 mph 5.8 mph 95 % 0 in
22:20 58.5 °F 57 °F 29.9 in NNE 1 mph 2 mph 95 % 0 in
22:22 60.3 °F 58.8 °F 29.8 in NNE 5.8 mph 5.8 mph 95 % 0 in
22:27 60.3 °F 58.8 °F 29.8 in North 5.8 mph 5.8 mph 95 % 0 in
22:30 58.6 °F 57.6 °F 29.9 in Calm     96 % 0 in
22:32 60.3 °F 58.8 °F 29.8 in NNE 5.8 mph 5.8 mph 95 % 0 in
22:37 60.3 °F 58.8 °F 29.8 in NNE 5.8 mph 5.8 mph 95 % 0 in
22:40 58.6 °F 57.6 °F 29.9 in Calm     96 % 0 in
22:42 60.4 °F 59 °F 29.8 in NNE 4.6 mph 4.6 mph 95 % 0 in
22:47 60.4 °F 59 °F 29.8 in ENE 6.2 mph 6.2 mph 95 % 0 in
22:50 58.6 °F 57.6 °F 29.9 in Calm     96 % 0 in
22:52 60.4 °F 59 °F 29.8 in NNE 5.8 mph 5.8 mph 95 % 0 in
22:57 60.4 °F 59 °F 29.8 in NNE 4.6 mph 4.6 mph 95 % 0 in
23:00 58.8 °F 57.7 °F 29.9 in Calm     96 % 0 in
23:02 60.3 °F 58.8 °F 29.8 in NE 3.5 mph 3.5 mph 95 % 0 in
23:07 60.1 °F 58.6 °F 29.8 in ENE 3.5 mph 3.5 mph 95 % 0 in
23:10 58.5 °F 57.4 °F 29.9 in Calm     96 % 0 in
23:12 60.1 °F 58.6 °F 29.9 in NNE 2.3 mph 2.3 mph 95 % 0 in
23:17 59.9 °F 58.5 °F 29.9 in NNE 1.2 mph 1.2 mph 95 % 0 in
23:20 58.3 °F 57 °F 29.9 in WNW 2 mph 2 mph 96 % 0 in
23:22 59.9 °F 58.5 °F 29.9 in NNE 3.8 mph 3.8 mph 95 % 0 in
23:27 59.9 °F 58.5 °F 29.8 in NNE 4.6 mph 4.6 mph 95 % 0 in
23:30 58.3 °F 57 °F 29.9 in Calm     96 % 0 in
23:32 59.7 °F 58.3 °F 29.8 in NE 3.5 mph 3.5 mph 95 % 0 in
23:37 59.7 °F 58.3 °F 29.8 in NNE 2.3 mph 2.3 mph 95 % 0 in
23:40 58.3 °F 57 °F 29.9 in Calm     96 % 0 in
23:42 59.7 °F 58.3 °F 29.8 in ENE 3.5 mph   95 % 0 in
23:47 59.7 °F 58.3 °F 29.8 in NE 2.3 mph 2.3 mph 95 % 0 in
23:50 58.3 °F 57 °F 29.9 in Calm     96 % 0 in
23:52 59.7 °F 58.3 °F 29.8 in Calm     95 % 0 in
23:57 59.7 °F 58.3 °F 29.9 in Calm     95 % 0 in
Meteo Sesrovires
Elogis d' Weather Underground - 3.75 mb

Guio original per  Jim McMurry - jmcmurry@mwt.net Adaptat per a la plantilla per  Wim van der Kuil - Leuven-Template.eu

Trobareu la nostra informacio del temps tambe a:

Weather Underground

AWEKAS